sensor_id;sensor_type;location;lat;lon;timestamp;P1;durP1;ratioP1;P2;durP2;ratioP2
11642;SDS011;5877;50.930;6.918;2023-08-17T05:12:23;7.57;;;4.67;;
11642;SDS011;5877;50.930;6.918;2023-08-17T05:17:19;6.50;;;4.23;;
11642;SDS011;5877;50.930;6.918;2023-08-17T05:22:14;4.13;;;3.73;;
11642;SDS011;5877;50.930;6.918;2023-08-17T05:27:09;4.57;;;4.17;;
11642;SDS011;5877;50.930;6.918;2023-08-17T05:32:02;4.17;;;3.77;;
11642;SDS011;5877;50.930;6.918;2023-08-17T05:36:58;4.97;;;4.03;;
11642;SDS011;5877;50.930;6.918;2023-08-17T05:42:09;6.03;;;4.53;;
11642;SDS011;5877;50.930;6.918;2023-08-17T05:47:19;8.00;;;6.33;;
11642;SDS011;5877;50.930;6.918;2023-08-17T05:52:21;5.37;;;4.87;;
11642;SDS011;5877;50.930;6.918;2023-08-17T05:57:15;6.23;;;4.37;;
11642;SDS011;5877;50.930;6.918;2023-08-17T06:02:19;5.63;;;5.07;;
11642;SDS011;5877;50.930;6.918;2023-08-17T06:07:11;5.57;;;4.43;;
11642;SDS011;5877;50.930;6.918;2023-08-17T06:12:07;6.60;;;5.43;;
11642;SDS011;5877;50.930;6.918;2023-08-17T06:17:20;5.33;;;4.83;;
11642;SDS011;5877;50.930;6.918;2023-08-17T06:22:15;5.13;;;4.67;;
11642;SDS011;5877;50.930;6.918;2023-08-17T06:27:11;7.10;;;5.77;;
11642;SDS011;5877;50.930;6.918;2023-08-17T06:32:08;4.93;;;4.53;;
11642;SDS011;5877;50.930;6.918;2023-08-17T06:37:02;6.00;;;5.50;;
11642;SDS011;5877;50.930;6.918;2023-08-17T06:41:56;6.93;;;6.00;;
11642;SDS011;5877;50.930;6.918;2023-08-17T06:46:53;5.43;;;4.77;;
11642;SDS011;5877;50.930;6.918;2023-08-17T06:51:47;4.40;;;3.90;;
11642;SDS011;5877;50.930;6.918;2023-08-17T07:03:03;6.50;;;5.80;;
11642;SDS011;5877;50.930;6.918;2023-08-17T07:14:42;8.07;;;6.13;;
11642;SDS011;5877;50.930;6.918;2023-08-17T07:20:04;5.13;;;4.63;;
11642;SDS011;5877;50.930;6.918;2023-08-17T07:25:05;7.67;;;5.77;;
11642;SDS011;5877;50.930;6.918;2023-08-17T07:30:14;9.37;;;5.83;;
11642;SDS011;5877;50.930;6.918;2023-08-17T07:35:22;8.47;;;6.40;;
11642;SDS011;5877;50.930;6.918;2023-08-17T07:40:47;7.87;;;6.47;;
11642;SDS011;5877;50.930;6.918;2023-08-17T07:45:41;6.97;;;5.70;;
11642;SDS011;5877;50.930;6.918;2023-08-17T07:50:39;6.97;;;5.33;;
11642;SDS011;5877;50.930;6.918;2023-08-17T07:55:37;7.97;;;5.70;;
11642;SDS011;5877;50.930;6.918;2023-08-17T08:00:32;9.50;;;5.93;;
11642;SDS011;5877;50.930;6.918;2023-08-17T08:05:26;12.97;;;6.40;;
11642;SDS011;5877;50.930;6.918;2023-08-17T08:10:21;8.37;;;5.93;;
11642;SDS011;5877;50.930;6.918;2023-08-17T08:21:51;10.57;;;6.57;;
11642;SDS011;5877;50.930;6.918;2023-08-17T08:33:50;9.43;;;6.70;;
11642;SDS011;5877;50.930;6.918;2023-08-17T08:39:14;9.83;;;6.10;;
11642;SDS011;5877;50.930;6.918;2023-08-17T08:44:12;11.67;;;7.23;;
11642;SDS011;5877;50.930;6.918;2023-08-17T08:49:19;12.00;;;7.30;;
11642;SDS011;5877;50.930;6.918;2023-08-17T08:54:45;10.17;;;6.93;;
11642;SDS011;5877;50.930;6.918;2023-08-17T08:59:57;9.90;;;6.53;;
11642;SDS011;5877;50.930;6.918;2023-08-17T09:05:02;10.20;;;7.03;;
11642;SDS011;5877;50.930;6.918;2023-08-17T09:09:56;16.97;;;7.63;;
11642;SDS011;5877;50.930;6.918;2023-08-17T09:14:52;13.27;;;7.97;;
11642;SDS011;5877;50.930;6.918;2023-08-17T09:19:48;12.83;;;8.10;;
11642;SDS011;5877;50.930;6.918;2023-08-17T09:24:52;13.97;;;7.77;;
11642;SDS011;5877;50.930;6.918;2023-08-17T09:30:06;12.30;;;8.00;;
11642;SDS011;5877;50.930;6.918;2023-08-17T09:35:11;17.03;;;9.03;;
11642;SDS011;5877;50.930;6.918;2023-08-17T09:40:04;16.27;;;9.47;;
11642;SDS011;5877;50.930;6.918;2023-08-17T09:45:00;14.83;;;9.27;;
11642;SDS011;5877;50.930;6.918;2023-08-17T09:49:57;15.40;;;9.60;;
11642;SDS011;5877;50.930;6.918;2023-08-17T09:54:51;11.67;;;8.87;;
11642;SDS011;5877;50.930;6.918;2023-08-17T09:59:44;13.97;;;9.77;;
11642;SDS011;5877;50.930;6.918;2023-08-17T10:04:38;13.90;;;10.30;;
11642;SDS011;5877;50.930;6.918;2023-08-17T10:09:39;12.10;;;9.05;;
11642;SDS011;5877;50.930;6.918;2023-08-17T10:14:42;14.23;;;10.50;;
11642;SDS011;5877;50.930;6.918;2023-08-17T10:19:52;16.20;;;11.33;;
11642;SDS011;5877;50.930;6.918;2023-08-17T10:25:00;14.98;;;10.75;;
11642;SDS011;5877;50.930;6.918;2023-08-17T10:29:53;13.45;;;9.80;;
11642;SDS011;5877;50.930;6.918;2023-08-17T10:34:47;14.30;;;12.40;;
11642;SDS011;5877;50.930;6.918;2023-08-17T10:39:48;10.23;;;9.15;;
11642;SDS011;5877;50.930;6.918;2023-08-17T10:44:45;11.23;;;8.98;;
11642;SDS011;5877;50.930;6.918;2023-08-17T10:49:44;12.57;;;9.33;;
11642;SDS011;5877;50.930;6.918;2023-08-17T10:54:41;10.87;;;9.63;;
11642;SDS011;5877;50.930;6.918;2023-08-17T10:59:36;11.07;;;9.57;;
11642;SDS011;5877;50.930;6.918;2023-08-17T11:04:32;17.77;;;15.02;;
11642;SDS011;5877;50.930;6.918;2023-08-17T11:09:28;12.83;;;11.13;;
11642;SDS011;5877;50.930;6.918;2023-08-17T11:14:22;11.80;;;10.45;;
11642;SDS011;5877;50.930;6.918;2023-08-17T11:19:25;13.35;;;10.23;;
11642;SDS011;5877;50.930;6.918;2023-08-17T11:24:17;11.90;;;10.60;;
11642;SDS011;5877;50.930;6.918;2023-08-17T11:29:12;12.50;;;11.02;;
11642;SDS011;5877;50.930;6.918;2023-08-17T11:34:07;11.43;;;10.23;;
11642;SDS011;5877;50.930;6.918;2023-08-17T11:39:00;12.05;;;10.18;;
11642;SDS011;5877;50.930;6.918;2023-08-17T11:44:02;12.07;;;9.60;;
11642;SDS011;5877;50.930;6.918;2023-08-17T11:49:02;10.77;;;9.40;;
11642;SDS011;5877;50.930;6.918;2023-08-17T11:54:23;11.25;;;9.60;;
11642;SDS011;5877;50.930;6.918;2023-08-17T11:59:29;11.05;;;9.20;;
11642;SDS011;5877;50.930;6.918;2023-08-17T12:04:53;10.55;;;9.45;;
11642;SDS011;5877;50.930;6.918;2023-08-17T12:10:08;10.90;;;7.47;;
11642;SDS011;5877;50.930;6.918;2023-08-17T12:15:33;13.03;;;7.67;;
11642;SDS011;5877;50.930;6.918;2023-08-17T12:20:42;10.63;;;7.17;;
11642;SDS011;5877;50.930;6.918;2023-08-17T12:25:59;13.63;;;7.27;;
11642;SDS011;5877;50.930;6.918;2023-08-17T12:31:21;10.90;;;7.37;;
11642;SDS011;5877;50.930;6.918;2023-08-17T12:36:45;10.07;;;7.40;;
11642;SDS011;5877;50.930;6.918;2023-08-17T12:41:46;6.80;;;6.13;;
11642;SDS011;5877;50.930;6.918;2023-08-17T12:46:58;10.00;;;7.40;;
11642;SDS011;5877;50.930;6.918;2023-08-17T12:52:07;10.27;;;7.83;;
11642;SDS011;5877;50.930;6.918;2023-08-17T12:57:10;10.57;;;7.97;;
11642;SDS011;5877;50.930;6.918;2023-08-17T13:02:25;9.30;;;7.60;;
11642;SDS011;5877;50.930;6.918;2023-08-17T13:07:23;9.30;;;7.03;;
11642;SDS011;5877;50.930;6.918;2023-08-17T13:12:29;11.97;;;7.87;;
11642;SDS011;5877;50.930;6.918;2023-08-17T13:17:24;9.90;;;8.27;;
11642;SDS011;5877;50.930;6.918;2023-08-17T13:22:32;10.23;;;7.57;;
11642;SDS011;5877;50.930;6.918;2023-08-17T13:28:01;9.87;;;7.57;;
11642;SDS011;5877;50.930;6.918;2023-08-17T13:33:19;14.43;;;8.13;;
11642;SDS011;5877;50.930;6.918;2023-08-17T13:38:48;11.00;;;6.80;;
11642;SDS011;5877;50.930;6.918;2023-08-17T13:43:58;7.93;;;7.10;;
11642;SDS011;5877;50.930;6.918;2023-08-17T13:49:11;9.00;;;6.97;;
11642;SDS011;5877;50.930;6.918;2023-08-17T13:54:16;8.07;;;7.27;;
11642;SDS011;5877;50.930;6.918;2023-08-17T13:59:21;10.50;;;7.77;;
11642;SDS011;5877;50.930;6.918;2023-08-17T14:04:36;9.97;;;7.77;;
11642;SDS011;5877;50.930;6.918;2023-08-17T14:09:49;11.63;;;9.20;;
11642;SDS011;5877;50.930;6.918;2023-08-17T14:15:11;10.23;;;7.87;;
11642;SDS011;5877;50.930;6.918;2023-08-17T14:20:23;8.97;;;7.43;;
11642;SDS011;5877;50.930;6.918;2023-08-17T14:25:17;9.03;;;7.63;;
11642;SDS011;5877;50.930;6.918;2023-08-17T14:30:51;7.20;;;6.40;;
11642;SDS011;5877;50.930;6.918;2023-08-17T14:36:11;8.83;;;6.80;;
11642;SDS011;5877;50.930;6.918;2023-08-17T14:41:14;7.63;;;6.40;;
11642;SDS011;5877;50.930;6.918;2023-08-17T14:46:10;7.03;;;6.43;;
11642;SDS011;5877;50.930;6.918;2023-08-17T14:51:09;7.20;;;5.97;;
11642;SDS011;5877;50.930;6.918;2023-08-17T14:56:01;7.30;;;6.27;;
11642;SDS011;5877;50.930;6.918;2023-08-17T15:00:57;6.70;;;5.43;;
11642;SDS011;5877;50.930;6.918;2023-08-17T15:06:29;6.93;;;6.17;;
11642;SDS011;5877;50.930;6.918;2023-08-17T15:12:14;7.30;;;5.77;;
11642;SDS011;5877;50.930;6.918;2023-08-17T15:17:23;6.80;;;4.73;;
11642;SDS011;5877;50.930;6.918;2023-08-17T15:22:29;5.43;;;4.87;;
11642;SDS011;5877;50.930;6.918;2023-08-17T15:27:25;7.70;;;6.90;;
11642;SDS011;5877;50.930;6.918;2023-08-17T15:32:19;5.50;;;5.00;;
11642;SDS011;5877;50.930;6.918;2023-08-17T15:37:16;5.37;;;4.50;;
11642;SDS011;5877;50.930;6.918;2023-08-17T15:42:20;5.13;;;4.60;;
11642;SDS011;5877;50.930;6.918;2023-08-17T15:48:11;5.97;;;5.10;;
11642;SDS011;5877;50.930;6.918;2023-08-17T15:59:07;5.70;;;5.00;;
11642;SDS011;5877;50.930;6.918;2023-08-17T16:04:03;5.40;;;4.90;;
11642;SDS011;5877;50.930;6.918;2023-08-17T16:09:01;5.63;;;4.67;;
11642;SDS011;5877;50.930;6.918;2023-08-17T16:13:53;6.70;;;4.67;;
11642;SDS011;5877;50.930;6.918;2023-08-17T16:18:47;5.23;;;4.20;;
11642;SDS011;5877;50.930;6.918;2023-08-17T16:23:42;7.17;;;4.37;;
11642;SDS011;5877;50.930;6.918;2023-08-17T16:28:35;5.00;;;4.10;;
11642;SDS011;5877;50.930;6.918;2023-08-17T16:33:29;5.00;;;4.23;;
11642;SDS011;5877;50.930;6.918;2023-08-17T16:38:23;5.63;;;4.53;;
11642;SDS011;5877;50.930;6.918;2023-08-17T16:43:16;4.83;;;4.17;;
11642;SDS011;5877;50.930;6.918;2023-08-17T16:48:14;7.17;;;4.50;;
11642;SDS011;5877;50.930;6.918;2023-08-17T16:53:21;4.13;;;3.80;;
11642;SDS011;5877;50.930;6.918;2023-08-17T16:58:15;4.37;;;3.97;;
11642;SDS011;5877;50.930;6.918;2023-08-17T17:03:11;6.00;;;4.00;;
11642;SDS011;5877;50.930;6.918;2023-08-17T17:08:11;5.10;;;4.03;;
11642;SDS011;5877;50.930;6.918;2023-08-17T17:13:07;5.13;;;4.60;;
11642;SDS011;5877;50.930;6.918;2023-08-17T17:18:04;4.53;;;4.13;;
11642;SDS011;5877;50.930;6.918;2023-08-17T17:23:02;6.07;;;3.97;;
11642;SDS011;5877;50.930;6.918;2023-08-17T17:28:01;5.87;;;4.47;;
11642;SDS011;5877;50.930;6.918;2023-08-17T17:32:55;4.77;;;4.37;;
11642;SDS011;5877;50.930;6.918;2023-08-17T17:37:51;6.60;;;4.63;;
11642;SDS011;5877;50.930;6.918;2023-08-17T17:42:55;5.70;;;5.20;;
11642;SDS011;5877;50.930;6.918;2023-08-17T17:47:52;5.90;;;4.80;;
11642;SDS011;5877;50.930;6.918;2023-08-17T17:52:45;4.73;;;4.30;;
11642;SDS011;5877;50.930;6.918;2023-08-17T17:57:46;6.33;;;4.50;;
11642;SDS011;5877;50.930;6.918;2023-08-17T18:02:39;6.03;;;5.53;;
11642;SDS011;5877;50.930;6.918;2023-08-17T18:07:32;5.53;;;5.03;;
11642;SDS011;5877;50.930;6.918;2023-08-17T18:12:28;5.70;;;4.60;;
11642;SDS011;5877;50.930;6.918;2023-08-17T18:17:39;5.23;;;4.70;;
11642;SDS011;5877;50.930;6.918;2023-08-17T18:22:32;6.77;;;4.50;;
11642;SDS011;5877;50.930;6.918;2023-08-17T18:27:26;5.70;;;4.47;;
11642;SDS011;5877;50.930;6.918;2023-08-17T18:32:28;5.53;;;5.03;;
11642;SDS011;5877;50.930;6.918;2023-08-17T18:37:31;5.50;;;5.00;;
11642;SDS011;5877;50.930;6.918;2023-08-17T18:42:38;5.97;;;5.37;;
11642;SDS011;5877;50.930;6.918;2023-08-17T18:47:34;5.50;;;4.97;;
11642;SDS011;5877;50.930;6.918;2023-08-17T18:52:36;6.00;;;5.50;;
11642;SDS011;5877;50.930;6.918;2023-08-17T18:57:45;5.53;;;5.03;;
11642;SDS011;5877;50.930;6.918;2023-08-17T19:02:42;6.73;;;5.50;;
11642;SDS011;5877;50.930;6.918;2023-08-17T19:07:38;5.67;;;5.13;;
11642;SDS011;5877;50.930;6.918;2023-08-17T19:12:33;5.50;;;5.00;;
11642;SDS011;5877;50.930;6.918;2023-08-17T19:17:30;5.90;;;5.30;;
11642;SDS011;5877;50.930;6.918;2023-08-17T19:22:24;6.03;;;5.43;;
11642;SDS011;5877;50.930;6.918;2023-08-17T19:27:17;7.17;;;5.67;;
11642;SDS011;5877;50.930;6.918;2023-08-17T19:32:11;6.60;;;4.60;;
11642;SDS011;5877;50.930;6.918;2023-08-17T19:37:03;6.40;;;5.73;;
11642;SDS011;5877;50.930;6.918;2023-08-17T19:41:57;5.20;;;4.80;;
11642;SDS011;5877;50.930;6.918;2023-08-17T19:46:54;7.40;;;5.90;;
11642;SDS011;5877;50.930;6.918;2023-08-17T19:51:52;6.23;;;5.60;;
11642;SDS011;5877;50.930;6.918;2023-08-17T19:56:49;6.73;;;6.10;;
11642;SDS011;5877;50.930;6.918;2023-08-17T20:01:54;6.13;;;5.60;;
11642;SDS011;5877;50.930;6.918;2023-08-17T20:06:48;6.33;;;5.73;;
11642;SDS011;5877;50.930;6.918;2023-08-17T20:11:45;6.77;;;6.17;;
11642;SDS011;5877;50.930;6.918;2023-08-17T20:16:41;6.80;;;6.10;;
11642;SDS011;5877;50.930;6.918;2023-08-17T20:21:34;6.73;;;6.07;;
11642;SDS011;5877;50.930;6.918;2023-08-17T20:26:29;8.17;;;6.80;;
11642;SDS011;5877;50.930;6.918;2023-08-17T20:31:22;7.43;;;6.70;;
11642;SDS011;5877;50.930;6.918;2023-08-17T20:36:18;6.33;;;5.80;;
11642;SDS011;5877;50.930;6.918;2023-08-17T20:41:11;7.53;;;6.87;;
11642;SDS011;5877;50.930;6.918;2023-08-17T20:46:13;7.07;;;6.37;;
11642;SDS011;5877;50.930;6.918;2023-08-17T20:51:11;7.97;;;7.10;;
11642;SDS011;5877;50.930;6.918;2023-08-17T20:56:04;6.53;;;6.03;;
11642;SDS011;5877;50.930;6.918;2023-08-17T21:00:58;8.17;;;7.00;;
11642;SDS011;5877;50.930;6.918;2023-08-17T21:05:51;7.30;;;6.70;;
11642;SDS011;5877;50.930;6.918;2023-08-17T21:10:46;7.60;;;7.00;;
11642;SDS011;5877;50.930;6.918;2023-08-17T21:15:44;7.23;;;6.53;;
11642;SDS011;5877;50.930;6.918;2023-08-17T21:20:39;7.40;;;6.67;;
11642;SDS011;5877;50.930;6.918;2023-08-17T21:25:32;7.70;;;7.00;;
11642;SDS011;5877;50.930;6.918;2023-08-17T21:30:26;9.07;;;7.00;;
11642;SDS011;5877;50.930;6.918;2023-08-17T21:35:19;7.80;;;7.00;;
11642;SDS011;5877;50.930;6.918;2023-08-17T21:40:15;8.33;;;7.37;;
11642;SDS011;5877;50.930;6.918;2023-08-17T21:45:13;9.10;;;8.20;;
11642;SDS011;5877;50.930;6.918;2023-08-17T21:50:07;8.37;;;7.50;;
11642;SDS011;5877;50.930;6.918;2023-08-17T21:55:01;8.17;;;7.40;;
11642;SDS011;5877;50.930;6.918;2023-08-17T21:59:54;7.80;;;7.10;;
11642;SDS011;5877;50.930;6.918;2023-08-17T22:04:50;8.20;;;7.40;;
11642;SDS011;5877;50.930;6.918;2023-08-17T22:09:44;8.13;;;7.33;;
11642;SDS011;5877;50.930;6.918;2023-08-17T22:14:50;8.07;;;7.40;;
11642;SDS011;5877;50.930;6.918;2023-08-17T22:19:47;8.40;;;7.60;;
11642;SDS011;5877;50.930;6.918;2023-08-17T22:24:40;8.90;;;8.00;;
11642;SDS011;5877;50.930;6.918;2023-08-17T22:29:36;8.73;;;7.97;;
11642;SDS011;5877;50.930;6.918;2023-08-17T22:34:32;9.10;;;8.30;;
11642;SDS011;5877;50.930;6.918;2023-08-17T22:39:38;9.90;;;8.90;;
11642;SDS011;5877;50.930;6.918;2023-08-17T22:44:48;8.80;;;8.00;;
11642;SDS011;5877;50.930;6.918;2023-08-17T22:50:19;9.10;;;8.20;;
11642;SDS011;5877;50.930;6.918;2023-08-17T22:55:30;8.67;;;7.87;;
11642;SDS011;5877;50.930;6.918;2023-08-17T23:00:48;9.37;;;8.47;;
